Time;durP1;ratioP1;P1;durP2;ratioP2;P2;SDS_P1;SDS_P2;PMS_P1;PMS_P2;Temp;Humidity;BMP_temperature;BMP_pressure;BME280_temperature;BME280_humidity;BME280_pressure;Samples;Min_cycle;Max_cycle;Signal;HPM_P1;HPM_P2
2024/01/24 00:01:57;;;;;;;4.90;1.10;;;10.70;99.90;;;;;;5093597;28;20024;-80
2024/01/24 00:04:22;;;;;;;4.75;1.00;;;10.80;99.90;;;;;;5096312;28;20435;-80
2024/01/24 00:06:49;;;;;;;5.30;1.38;;;10.80;99.90;;;;;;5096812;28;20020;-81
2024/01/24 00:09:14;;;;;;;6.30;1.00;;;10.80;99.90;;;;;;5096439;28;20024;-81
2024/01/24 00:11:40;;;;;;;3.33;0.80;;;10.90;99.90;;;;;;5096874;28;20024;-81
2024/01/24 00:14:06;;;;;;;6.35;0.90;;;10.90;99.90;;;;;;5096598;28;20110;-80
2024/01/24 00:16:32;;;;;;;4.45;1.05;;;10.90;99.90;;;;;;5114118;28;20031;-81
2024/01/24 00:18:57;;;;;;;6.47;0.77;;;10.90;99.90;;;;;;5096606;28;20020;-80
2024/01/24 00:21:23;;;;;;;6.03;0.90;;;11.00;99.90;;;;;;5114231;28;20028;-81
2024/01/24 00:23:49;;;;;;;4.97;0.95;;;11.00;99.90;;;;;;5096314;28;20384;-80
2024/01/24 00:26:14;;;;;;;2.97;0.90;;;11.00;99.90;;;;;;5095963;28;20027;-80
2024/01/24 00:28:40;;;;;;;5.28;0.80;;;11.10;99.90;;;;;;5096119;28;20027;-82
2024/01/24 00:31:05;;;;;;;4.63;0.80;;;11.10;99.90;;;;;;5096369;28;20024;-81
2024/01/24 00:33:32;;;;;;;5.40;1.08;;;11.10;99.90;;;;;;5095987;28;20113;-80
2024/01/24 00:35:57;;;;;;;5.13;0.70;;;11.10;99.90;;;;;;5096200;28;20464;-80
2024/01/24 00:38:23;;;;;;;1.80;0.90;;;11.20;99.90;;;;;;5095977;28;20063;-82
2024/01/24 00:40:48;;;;;;;4.32;0.70;;;11.20;99.90;;;;;;5096334;28;20019;-80
2024/01/24 00:43:14;;;;;;;4.80;1.13;;;11.20;99.90;;;;;;5100550;28;20477;-81
2024/01/24 00:45:40;;;;;;;3.47;0.93;;;11.20;99.90;;;;;;5107107;28;20024;-81
2024/01/24 00:48:06;;;;;;;5.97;1.10;;;11.10;99.90;;;;;;5098453;28;20137;-82
2024/01/24 00:50:32;;;;;;;4.50;0.93;;;11.20;99.90;;;;;;5111295;28;20030;-80
2024/01/24 00:53:02;;;;;;;4.07;0.70;;;11.20;99.90;;;;;;5114117;28;20020;-80
2024/01/24 00:55:30;;;;;;;4.57;0.73;;;11.20;99.90;;;;;;5099012;28;20161;-79
2024/01/24 00:57:56;;;;;;;4.07;0.82;;;11.20;99.90;;;;;;5108950;28;20024;-80
2024/01/24 01:00:22;;;;;;;3.05;1.00;;;11.20;99.90;;;;;;5095631;28;20125;-80
2024/01/24 01:02:48;;;;;;;5.13;0.90;;;11.20;99.90;;;;;;5113840;28;20368;-80
2024/01/24 01:05:13;;;;;;;2.92;0.73;;;11.30;99.90;;;;;;5102411;28;20030;-81
2024/01/24 01:07:39;;;;;;;1.95;0.60;;;11.30;99.90;;;;;;5102121;28;20363;-81
2024/01/24 01:10:08;;;;;;;4.63;0.70;;;11.20;99.90;;;;;;5113500;28;20098;-83
2024/01/24 01:12:33;;;;;;;5.70;0.82;;;11.30;99.90;;;;;;5097021;28;20032;-80
2024/01/24 01:14:59;;;;;;;3.53;1.10;;;11.30;99.90;;;;;;5107373;28;20456;-82
2024/01/24 01:17:24;;;;;;;4.43;0.98;;;11.30;99.90;;;;;;5113425;28;20026;-83
2024/01/24 01:19:50;;;;;;;4.70;1.02;;;11.30;99.90;;;;;;5100690;28;20501;-81
2024/01/24 01:22:15;;;;;;;3.78;0.85;;;11.30;99.90;;;;;;5113121;28;20058;-82
2024/01/24 01:24:41;;;;;;;4.03;0.65;;;11.30;99.90;;;;;;5098399;28;20020;-81
2024/01/24 01:27:08;;;;;;;3.45;0.80;;;11.30;99.90;;;;;;5106099;28;20058;-81
2024/01/24 01:29:33;;;;;;;4.55;0.70;;;11.30;99.90;;;;;;5093931;28;20025;-82
2024/01/24 01:31:59;;;;;;;4.07;0.80;;;11.30;99.90;;;;;;5105795;28;20015;-81
2024/01/24 01:34:24;;;;;;;2.55;0.50;;;11.30;99.90;;;;;;5113383;28;20020;-81
2024/01/24 01:36:50;;;;;;;4.53;0.75;;;11.30;99.90;;;;;;5108667;28;20031;-81
2024/01/24 01:39:16;;;;;;;2.42;0.60;;;11.30;99.90;;;;;;5102216;28;20019;-79
2024/01/24 01:41:45;;;;;;;4.43;0.70;;;11.30;99.90;;;;;;5113117;28;20026;-82
2024/01/24 01:44:12;;;;;;;5.68;0.88;;;11.30;99.90;;;;;;5095682;28;20016;-81
2024/01/24 01:46:38;;;;;;;3.90;0.70;;;11.30;99.90;;;;;;5113653;28;20028;-81
2024/01/24 01:49:04;;;;;;;6.88;0.63;;;11.30;99.90;;;;;;5113527;28;20023;-82
2024/01/24 01:51:30;;;;;;;1.88;0.60;;;11.30;99.90;;;;;;5095094;28;20067;-81
2024/01/24 01:53:57;;;;;;;8.30;0.77;;;11.30;99.90;;;;;;5095225;28;20031;-80
2024/01/24 01:56:23;;;;;;;2.88;0.70;;;11.30;99.90;;;;;;5094840;28;20491;-80
2024/01/24 01:58:49;;;;;;;4.35;0.70;;;11.30;99.90;;;;;;5113147;28;20035;-81
2024/01/24 02:01:15;;;;;;;4.50;0.88;;;11.30;99.90;;;;;;5094477;28;20019;-81
2024/01/24 02:03:42;;;;;;;7.90;1.35;;;11.30;99.90;;;;;;5095357;28;20027;-82
2024/01/24 02:06:08;;;;;;;2.47;0.65;;;11.30;99.90;;;;;;5113413;28;20031;-81
2024/01/24 02:08:36;;;;;;;3.53;0.73;;;11.30;99.90;;;;;;5095915;28;20027;-81
2024/01/24 02:11:03;;;;;;;3.03;0.70;;;11.40;99.90;;;;;;5099280;28;20027;-81
2024/01/24 02:13:32;;;;;;;4.38;1.00;;;11.40;99.90;;;;;;5098607;28;20020;-82
2024/01/24 02:16:04;;;;;;;3.13;0.63;;;11.40;99.90;;;;;;5099044;28;20039;-81
2024/01/24 02:18:29;;;;;;;;;;;11.40;99.90;;;;;;5083137;28;20053;-82
2024/01/24 02:20:56;;;;;;;5.07;0.65;;;11.30;99.90;;;;;;5099082;28;19900;-81
2024/01/24 02:23:24;;;;;;;3.95;1.00;;;11.40;99.90;;;;;;5098416;28;20026;-81
2024/01/24 02:25:50;;;;;;;2.47;0.82;;;11.40;99.90;;;;;;5098961;28;20034;-80
2024/01/24 02:28:16;;;;;;;3.35;0.70;;;11.40;99.90;;;;;;5097763;28;20039;-80
2024/01/24 02:30:42;;;;;;;3.45;1.25;;;11.40;99.90;;;;;;5116636;28;20024;-81
2024/01/24 02:33:07;;;;;;;3.58;0.57;;;11.40;99.90;;;;;;5098883;28;20111;-80
2024/01/24 02:35:34;;;;;;;5.72;0.70;;;11.40;99.90;;;;;;5097708;28;20446;-79
2024/01/24 02:38:00;;;;;;;6.22;0.80;;;11.40;99.90;;;;;;5098052;28;20110;-79
2024/01/24 02:40:26;;;;;;;3.58;0.80;;;11.50;99.90;;;;;;5097860;28;20043;-79
2024/01/24 02:42:51;;;;;;;2.42;0.50;;;11.50;99.90;;;;;;5103310;28;20480;-80
2024/01/24 02:45:17;;;;;;;3.75;0.50;;;11.50;99.90;;;;;;5105759;28;20035;-80
2024/01/24 02:47:42;;;;;;;1.70;0.80;;;11.50;99.90;;;;;;5104189;28;20058;-80
2024/01/24 02:50:09;;;;;;;5.07;1.42;;;11.50;99.90;;;;;;5116606;28;20026;-80
2024/01/24 02:52:34;;;;;;;4.68;1.02;;;11.50;99.90;;;;;;5099715;28;20051;-82
2024/01/24 02:55:00;;;;;;;3.33;0.50;;;11.50;99.90;;;;;;5111027;28;20050;-80
2024/01/24 02:57:26;;;;;;;3.33;0.50;;;11.50;99.90;;;;;;5105329;28;20019;-81
2024/01/24 02:59:51;;;;;;;3.45;0.50;;;11.50;99.90;;;;;;5106349;28;20024;-80
2024/01/24 03:02:17;;;;;;;3.13;0.70;;;11.60;99.90;;;;;;5112953;28;20157;-80
2024/01/24 03:04:42;;;;;;;3.03;0.60;;;11.60;99.90;;;;;;5116167;28;20024;-79
2024/01/24 03:07:08;;;;;;;2.10;0.60;;;11.60;99.90;;;;;;5108353;28;20031;-82
2024/01/24 03:09:34;;;;;;;6.18;0.90;;;11.60;99.90;;;;;;5107273;28;20020;-78
2024/01/24 03:12:00;;;;;;;1.30;0.60;;;11.60;99.90;;;;;;5108068;28;20030;-79
2024/01/24 03:14:25;;;;;;;7.20;0.75;;;11.60;99.90;;;;;;5077618;28;20078;-79
2024/01/24 03:16:51;;;;;;;4.80;0.40;;;11.60;99.90;;;;;;5097440;28;20058;-78
2024/01/24 03:19:16;;;;;;;5.20;0.60;;;11.60;99.90;;;;;;5097174;28;20107;-78
2024/01/24 03:21:42;;;;;;;3.05;0.50;;;11.60;99.90;;;;;;5096750;28;20664;-78
2024/01/24 03:24:08;;;;;;;6.03;0.80;;;11.60;99.90;;;;;;5115921;28;20094;-78
2024/01/24 03:26:34;;;;;;;0.90;0.43;;;11.70;99.90;;;;;;5115062;28;20429;-78
2024/01/24 03:28:59;;;;;;;1.80;0.45;;;11.60;99.90;;;;;;5115584;28;20030;-78
2024/01/24 03:31:25;;;;;;;3.22;0.45;;;11.60;99.90;;;;;;5096934;28;20441;-78
2024/01/24 03:33:51;;;;;;;2.28;0.60;;;11.60;99.90;;;;;;5096968;28;20024;-78
2024/01/24 03:36:17;;;;;;;3.50;0.95;;;11.60;99.90;;;;;;5096688;28;20066;-78
2024/01/24 03:38:43;;;;;;;1.90;0.63;;;11.60;99.90;;;;;;5097040;28;20421;-78
2024/01/24 03:41:09;;;;;;;4.28;0.63;;;11.60;99.90;;;;;;5096755;28;20111;-78
2024/01/24 03:43:39;;;;;;;3.33;0.80;;;11.60;99.90;;;;;;5096099;28;20134;-78
2024/01/24 03:46:05;;;;;;;3.63;0.60;;;11.60;99.90;;;;;;5115303;28;20059;-78
2024/01/24 03:48:30;;;;;;;2.45;0.73;;;11.60;99.90;;;;;;5114805;28;20058;-78
2024/01/24 03:50:56;;;;;;;4.63;0.70;;;11.70;99.90;;;;;;5115178;28;20082;-78
2024/01/24 03:53:21;;;;;;;3.38;0.60;;;11.70;99.90;;;;;;5096047;28;20042;-78
2024/01/24 03:55:47;;;;;;;2.47;0.68;;;11.70;99.90;;;;;;5096853;28;20031;-78
2024/01/24 03:58:13;;;;;;;3.28;0.90;;;11.70;99.90;;;;;;5096720;28;20024;-78
2024/01/24 04:00:38;;;;;;;2.25;0.63;;;11.70;99.90;;;;;;5096103;28;20138;-78
2024/01/24 04:03:04;;;;;;;6.38;0.90;;;11.70;99.90;;;;;;5096674;28;20164;-78
2024/01/24 04:05:30;;;;;;;1.40;0.50;;;11.80;99.90;;;;;;5096265;28;20024;-78
2024/01/24 04:07:55;;;;;;;5.05;0.60;;;11.80;99.90;;;;;;5096481;28;20026;-78
2024/01/24 04:10:21;;;;;;;2.63;0.70;;;11.80;99.90;;;;;;5114364;28;20065;-79
2024/01/24 04:12:47;;;;;;;1.50;0.70;;;11.80;99.90;;;;;;5096906;28;20383;-78
2024/01/24 04:15:13;;;;;;;1.92;0.68;;;11.80;99.90;;;;;;5096405;28;20032;-78
2024/01/24 04:17:39;;;;;;;1.60;0.60;;;11.80;99.90;;;;;;5114376;28;20016;-78
2024/01/24 04:20:05;;;;;;;4.30;0.70;;;11.80;99.90;;;;;;5114757;28;20023;-78
2024/01/24 04:22:32;;;;;;;4.63;0.63;;;11.80;99.90;;;;;;5079012;28;20031;-79
2024/01/24 04:24:57;;;;;;;5.80;0.57;;;11.90;99.90;;;;;;5114751;28;20031;-78
2024/01/24 04:27:23;;;;;;;2.10;0.40;;;11.90;99.90;;;;;;5095557;28;20084;-79
2024/01/24 04:29:48;;;;;;;1.55;0.60;;;11.90;99.90;;;;;;5114500;28;20456;-78
2024/01/24 04:32:14;;;;;;;5.18;0.88;;;11.90;99.90;;;;;;5114144;28;20115;-78
2024/01/24 04:34:40;;;;;;;1.80;0.45;;;11.90;99.90;;;;;;5113915;28;20061;-78
2024/01/24 04:37:06;;;;;;;3.53;0.47;;;11.90;99.90;;;;;;5096313;28;20451;-79
2024/01/24 04:39:31;;;;;;;3.45;0.63;;;12.00;99.90;;;;;;5095791;28;20027;-78
2024/01/24 04:41:58;;;;;;;2.72;0.82;;;12.00;99.90;;;;;;5092533;28;20043;-77
2024/01/24 04:44:23;;;;;;;3.60;0.60;;;12.00;99.90;;;;;;5093449;28;20483;-78
2024/01/24 04:46:49;;;;;;;3.72;0.60;;;12.00;99.90;;;;;;5092912;28;20024;-78
2024/01/24 04:49:14;;;;;;;1.38;0.50;;;12.00;99.90;;;;;;5092596;28;20020;-78
2024/01/24 04:51:40;;;;;;;3.03;0.60;;;12.10;99.90;;;;;;5092195;28;20016;-78
2024/01/24 04:54:06;;;;;;;3.17;0.70;;;12.10;99.90;;;;;;5092461;28;20019;-78
2024/01/24 04:56:33;;;;;;;4.80;1.15;;;12.10;99.90;;;;;;5093030;28;20050;-79
2024/01/24 04:58:59;;;;;;;3.55;0.82;;;12.10;99.90;;;;;;5092570;28;20464;-78
2024/01/24 05:01:25;;;;;;;4.93;0.57;;;12.10;99.90;;;;;;5091815;28;20118;-79
2024/01/24 05:03:50;;;;;;;4.88;0.52;;;12.10;99.90;;;;;;5092484;28;20016;-78
2024/01/24 05:06:16;;;;;;;2.95;0.65;;;12.10;99.90;;;;;;5093875;28;20059;-78
2024/01/24 05:08:42;;;;;;;3.00;0.60;;;12.10;99.90;;;;;;5091940;28;20438;-78
2024/01/24 05:11:07;;;;;;;3.00;0.70;;;12.10;99.90;;;;;;5093230;28;20368;-79
2024/01/24 05:13:33;;;;;;;1.90;0.93;;;12.10;99.90;;;;;;5091979;28;20031;-78
2024/01/24 05:15:59;;;;;;;2.47;0.63;;;12.20;99.90;;;;;;5092249;28;20032;-79
2024/01/24 05:18:25;;;;;;;2.28;0.50;;;12.20;99.90;;;;;;5092740;28;20408;-79
2024/01/24 05:20:50;;;;;;;2.72;0.60;;;12.20;99.90;;;;;;5093669;28;20020;-78
2024/01/24 05:23:16;;;;;;;2.58;0.68;;;12.20;99.90;;;;;;5093398;28;20043;-79
2024/01/24 05:25:42;;;;;;;1.45;0.50;;;12.30;99.90;;;;;;5091830;28;20449;-78
2024/01/24 05:28:09;;;;;;;1.08;0.60;;;12.30;99.90;;;;;;5093335;28;20449;-78
2024/01/24 05:30:35;;;;;;;2.35;0.50;;;12.40;99.90;;;;;;5092714;28;20034;-78
2024/01/24 05:33:01;;;;;;;2.70;0.57;;;12.40;99.90;;;;;;5093320;28;20020;-78
2024/01/24 05:35:26;;;;;;;5.78;0.52;;;12.40;99.90;;;;;;5091270;28;20020;-78
2024/01/24 05:37:52;;;;;;;2.83;0.60;;;12.50;99.90;;;;;;5092144;28;20061;-79
2024/01/24 05:40:17;;;;;;;4.72;0.60;;;12.50;99.90;;;;;;5092082;28;20016;-79
2024/01/24 05:42:44;;;;;;;1.77;0.57;;;12.50;99.90;;;;;;5094667;28;20357;-78
2024/01/24 05:45:10;;;;;;;3.38;0.70;;;12.60;99.90;;;;;;5117077;28;20437;-78
2024/01/24 05:47:37;;;;;;;2.88;0.77;;;12.60;99.90;;;;;;5098971;28;20020;-78
2024/01/24 05:50:03;;;;;;;3.55;0.65;;;12.60;99.90;;;;;;5099440;28;20020;-78
2024/01/24 05:52:28;;;;;;;2.05;0.50;;;12.60;99.90;;;;;;5116708;28;20020;-78
2024/01/24 05:54:54;;;;;;;2.17;0.60;;;12.60;99.90;;;;;;5099015;28;20020;-78
2024/01/24 05:57:21;;;;;;;2.88;0.60;;;12.60;99.90;;;;;;5099123;28;20023;-78
2024/01/24 05:59:47;;;;;;;2.30;0.40;;;12.60;99.90;;;;;;5117213;28;20027;-78
2024/01/24 06:02:13;;;;;;;1.30;0.52;;;12.60;99.90;;;;;;5117252;28;20024;-78
2024/01/24 06:04:39;;;;;;;2.40;0.50;;;12.60;99.90;;;;;;5098646;28;20019;-78
2024/01/24 06:07:06;;;;;;;3.08;0.40;;;12.60;99.90;;;;;;5099107;28;20015;-78
2024/01/24 06:09:31;;;;;;;1.20;0.50;;;12.60;99.90;;;;;;5098473;28;20448;-79
2024/01/24 06:11:58;;;;;;;1.77;0.40;;;12.60;99.90;;;;;;5099184;28;20031;-78
2024/01/24 06:14:24;;;;;;;0.95;0.50;;;12.50;99.90;;;;;;5116471;28;20095;-81
2024/01/24 06:16:49;;;;;;;2.10;0.35;;;12.50;99.90;;;;;;5117044;28;20149;-78
2024/01/24 06:19:15;;;;;;;2.35;0.40;;;12.50;99.90;;;;;;5098815;28;20034;-78
2024/01/24 06:21:40;;;;;;;2.40;0.63;;;12.50;99.90;;;;;;5116471;28;20022;-78
2024/01/24 06:24:06;;;;;;;3.20;0.73;;;12.40;99.90;;;;;;5098169;28;20030;-77
2024/01/24 06:26:32;;;;;;;0.80;0.30;;;12.30;99.90;;;;;;5116380;28;20031;-78
2024/01/24 06:28:58;;;;;;;1.02;0.50;;;12.30;99.90;;;;;;5116622;28;20454;-78
2024/01/24 06:31:23;;;;;;;1.00;0.50;;;12.20;99.90;;;;;;5098964;28;20020;-78
2024/01/24 06:33:49;;;;;;;2.15;0.60;;;12.10;99.90;;;;;;5098574;28;20073;-78
2024/01/24 06:36:14;;;;;;;0.82;0.40;;;12.10;99.90;;;;;;5098128;28;20429;-78
2024/01/24 06:38:40;;;;;;;1.58;0.38;;;12.00;99.90;;;;;;5098142;28;20015;-78
2024/01/24 06:41:12;;;;;;;2.25;0.60;;;12.00;99.90;;;;;;5098811;28;20016;-78
2024/01/24 06:43:40;;;;;;;1.42;0.50;;;11.90;99.90;;;;;;5098117;28;20074;-78
2024/01/24 06:46:05;;;;;;;0.90;0.47;;;11.90;99.90;;;;;;5098396;28;20055;-78
2024/01/24 06:48:31;;;;;;;1.60;0.50;;;11.80;99.90;;;;;;5097889;28;20047;-78
2024/01/24 06:50:56;;;;;;;4.38;1.10;;;11.80;99.90;;;;;;5098385;28;20051;-78
2024/01/24 06:53:22;;;;;;;3.70;0.52;;;11.80;99.90;;;;;;5098196;28;20027;-78
2024/01/24 06:55:47;;;;;;;1.25;0.40;;;11.80;99.90;;;;;;5097534;28;20028;-78
2024/01/24 06:58:13;;;;;;;1.38;0.35;;;11.80;99.90;;;;;;5097533;28;20531;-78
2024/01/24 07:00:39;;;;;;;1.15;0.50;;;11.80;99.90;;;;;;5097461;28;20072;-78
2024/01/24 07:03:04;;;;;;;2.05;0.50;;;11.80;99.90;;;;;;5098031;28;20058;-78
2024/01/24 07:05:30;;;;;;;1.80;0.40;;;11.80;99.90;;;;;;5097421;28;20365;-78
2024/01/24 07:07:57;;;;;;;0.57;0.50;;;11.80;99.90;;;;;;5116098;28;20095;-78
2024/01/24 07:10:22;;;;;;;1.90;0.40;;;11.80;99.90;;;;;;5097722;28;20023;-78
2024/01/24 07:12:48;;;;;;;2.17;0.47;;;11.90;99.90;;;;;;5097215;28;20026;-78
2024/01/24 07:15:17;;;;;;;2.85;0.80;;;11.90;99.90;;;;;;5115826;28;20027;-78
2024/01/24 07:17:43;;;;;;;2.20;0.40;;;11.90;99.90;;;;;;5097105;28;20023;-78
2024/01/24 07:20:10;;;;;;;1.10;0.45;;;12.00;99.90;;;;;;5097696;28;20108;-78
2024/01/24 07:22:35;;;;;;;1.55;0.50;;;12.00;99.90;;;;;;5097041;28;20081;-78
2024/01/24 07:25:04;;;;;;;1.50;0.60;;;12.10;99.90;;;;;;5097419;28;20458;-78
2024/01/24 07:27:30;;;;;;;3.45;0.32;;;12.10;99.90;;;;;;5096958;28;20160;-78
2024/01/24 07:29:55;;;;;;;1.95;0.75;;;12.10;99.90;;;;;;5097239;28;20027;-78
2024/01/24 07:32:21;;;;;;;0.50;0.40;;;12.10;99.90;;;;;;5097182;28;20022;-77
2024/01/24 07:34:47;;;;;;;1.55;0.57;;;12.20;99.90;;;;;;5096920;28;20502;-77
2024/01/24 07:37:13;;;;;;;4.13;0.52;;;12.20;99.90;;;;;;5097216;28;20395;-78
2024/01/24 07:39:39;;;;;;;0.57;0.40;;;12.20;99.90;;;;;;5096776;28;20107;-78
2024/01/24 07:42:05;;;;;;;1.33;0.38;;;12.20;99.90;;;;;;5097049;28;20075;-78
2024/01/24 07:44:30;;;;;;;4.18;0.63;;;12.20;99.90;;;;;;5096741;28;20020;-79
2024/01/24 07:46:56;;;;;;;0.70;0.40;;;12.20;99.90;;;;;;5097182;28;20020;-78
2024/01/24 07:49:23;;;;;;;2.20;0.50;;;12.20;99.90;;;;;;5096869;28;20019;-78
2024/01/24 07:51:48;;;;;;;0.75;0.40;;;12.20;99.90;;;;;;5096460;28;20015;-77
2024/01/24 07:54:14;;;;;;;1.85;0.50;;;12.20;99.90;;;;;;5096943;28;20073;-78
2024/01/24 07:56:39;;;;;;;3.58;0.50;;;12.20;99.90;;;;;;5096312;28;20075;-78
2024/01/24 07:59:06;;;;;;;1.13;0.30;;;12.30;99.90;;;;;;5115151;28;20023;-78
2024/01/24 08:01:32;;;;;;;1.63;0.40;;;12.30;99.90;;;;;;5114930;28;20113;-79
2024/01/24 08:03:58;;;;;;;1.63;0.60;;;12.30;99.90;;;;;;5115313;28;20043;-78
2024/01/24 08:06:24;;;;;;;1.42;0.38;;;12.30;99.90;;;;;;5114212;28;20063;-78
2024/01/24 08:08:50;;;;;;;1.60;0.60;;;12.30;99.90;;;;;;5096549;28;20481;-78
2024/01/24 08:11:16;;;;;;;0.52;0.38;;;12.30;99.90;;;;;;5096765;28;20027;-78
2024/01/24 08:13:43;;;;;;;2.17;0.63;;;12.30;99.90;;;;;;5096415;28;20357;-78
2024/01/24 08:16:09;;;;;;;1.20;0.40;;;12.30;99.90;;;;;;5096487;28;20028;-78
2024/01/24 08:18:35;;;;;;;1.65;0.52;;;12.30;99.90;;;;;;5114298;28;20030;-78
2024/01/24 08:21:01;;;;;;;1.13;0.32;;;12.30;99.90;;;;;;5096579;28;20385;-78
2024/01/24 08:23:27;;;;;;;1.00;0.30;;;12.30;99.90;;;;;;5096533;28;20023;-78
2024/01/24 08:25:52;;;;;;;2.63;0.40;;;12.30;99.90;;;;;;5095816;28;20023;-78
2024/01/24 08:28:18;;;;;;;2.42;0.52;;;12.20;99.90;;;;;;5095936;28;20087;-78
2024/01/24 08:30:44;;;;;;;1.55;0.50;;;12.30;99.90;;;;;;5113907;28;20027;-78
2024/01/24 08:33:10;;;;;;;1.23;0.40;;;12.30;99.90;;;;;;5096222;28;20080;-78
2024/01/24 08:35:36;;;;;;;1.30;0.30;;;12.30;99.90;;;;;;5095660;28;20114;-78
2024/01/24 08:38:02;;;;;;;1.75;0.30;;;12.30;99.90;;;;;;5096649;28;20073;-79
2024/01/24 08:40:28;;;;;;;3.05;0.38;;;12.30;99.90;;;;;;5114685;28;20100;-79
2024/01/24 08:42:54;;;;;;;3.90;1.15;;;12.30;99.90;;;;;;5095773;28;20082;-79
2024/01/24 08:45:20;;;;;;;1.42;0.40;;;12.20;99.90;;;;;;5114564;28;20118;-78
2024/01/24 08:47:46;;;;;;;3.90;0.77;;;12.20;99.90;;;;;;5113721;28;20024;-78
2024/01/24 08:50:12;;;;;;;1.40;0.40;;;12.10;99.90;;;;;;5096199;28;20160;-78
2024/01/24 08:52:38;;;;;;;3.30;0.60;;;12.10;99.90;;;;;;5095321;28;20480;-78
2024/01/24 08:55:06;;;;;;;3.60;0.55;;;12.00;99.90;;;;;;5095692;28;20035;-78
2024/01/24 08:57:32;;;;;;;1.13;0.40;;;12.00;99.90;;;;;;5113940;28;20019;-78
2024/01/24 08:59:57;;;;;;;1.63;0.30;;;12.00;99.90;;;;;;5094956;28;20375;-78
2024/01/24 09:02:24;;;;;;;1.27;0.50;;;11.90;99.90;;;;;;5095868;28;20038;-78
2024/01/24 09:04:52;;;;;;;1.67;0.45;;;11.90;99.90;;;;;;5095355;28;20119;-78
2024/01/24 09:07:19;;;;;;;2.13;0.43;;;12.00;99.90;;;;;;5095533;28;20523;-78
2024/01/24 09:09:48;;;;;;;2.45;0.40;;;12.00;99.90;;;;;;5095258;28;20030;-78
2024/01/24 09:12:14;;;;;;;2.40;0.38;;;12.00;99.90;;;;;;5095412;28;20037;-78
2024/01/24 09:14:40;;;;;;;1.50;0.50;;;12.00;99.90;;;;;;5094877;28;20019;-78
2024/01/24 09:17:07;;;;;;;1.75;0.40;;;12.00;99.90;;;;;;5095448;28;20045;-78
2024/01/24 09:19:33;;;;;;;2.95;0.30;;;12.00;99.90;;;;;;5095439;28;20122;-78
2024/01/24 09:22:00;;;;;;;1.55;0.30;;;12.00;99.90;;;;;;5113298;28;20027;-78
2024/01/24 09:24:26;;;;;;;0.40;0.30;;;12.10;99.90;;;;;;5095543;28;20019;-78
2024/01/24 09:26:51;;;;;;;2.15;0.60;;;12.10;99.90;;;;;;5113230;28;20403;-78
2024/01/24 09:29:18;;;;;;;0.45;0.30;;;12.10;99.90;;;;;;5095492;28;20453;-78
2024/01/24 09:31:45;;;;;;;0.30;0.30;;;12.10;99.90;;;;;;5112990;28;20491;-78
2024/01/24 09:34:14;;;;;;;0.93;0.20;;;12.10;99.90;;;;;;5095483;28;20027;-78
2024/01/24 09:36:41;;;;;;;1.25;0.30;;;12.10;99.90;;;;;;5094765;28;20368;-78
2024/01/24 09:39:09;;;;;;;1.38;0.43;;;12.10;99.90;;;;;;5095374;28;20026;-78
2024/01/24 09:41:40;;;;;;;2.58;0.50;;;12.10;99.90;;;;;;5094898;28;20023;-83
2024/01/24 09:44:08;;;;;;;3.03;0.50;;;12.10;99.90;;;;;;5113558;28;20050;-78
2024/01/24 09:46:36;;;;;;;1.60;0.35;;;12.10;99.90;;;;;;5095122;28;20035;-78
2024/01/24 09:49:03;;;;;;;1.50;0.50;;;12.10;99.90;;;;;;5095422;28;20020;-78
2024/01/24 09:51:33;;;;;;;1.25;0.30;;;12.10;99.90;;;;;;5095259;28;20023;-78
2024/01/24 09:54:03;;;;;;;3.40;0.40;;;12.10;99.90;;;;;;5094915;28;20023;-78
2024/01/24 09:56:32;;;;;;;1.00;0.40;;;12.10;99.90;;;;;;5113528;28;20036;-79
2024/01/24 09:58:58;;;;;;;1.48;0.35;;;12.10;99.90;;;;;;5112961;28;20024;-78
2024/01/24 10:01:25;;;;;;;2.17;0.70;;;12.10;99.90;;;;;;5095107;28;20019;-78
2024/01/24 10:03:53;;;;;;;0.75;0.40;;;12.10;99.90;;;;;;5094616;28;20449;-77
2024/01/24 10:06:20;;;;;;;0.40;0.30;;;12.10;99.90;;;;;;5113345;28;20353;-78
2024/01/24 10:08:45;;;;;;;2.58;0.73;;;12.20;99.90;;;;;;5094272;28;20020;-78
2024/01/24 10:11:11;;;;;;;0.98;0.30;;;12.30;99.90;;;;;;5113642;28;20030;-79
2024/01/24 10:13:37;;;;;;;0.30;0.20;;;12.40;99.90;;;;;;5095257;28;20046;-79
2024/01/24 10:16:05;;;;;;;2.35;0.20;;;12.40;99.90;;;;;;5095447;28;20036;-79
2024/01/24 10:18:31;;;;;;;2.45;0.30;;;12.50;99.90;;;;;;5095310;28;20024;-79
2024/01/24 10:20:58;;;;;;;0.73;0.20;;;12.60;99.90;;;;;;5094642;28;20118;-78
2024/01/24 10:23:23;;;;;;;0.25;0.20;;;12.70;99.90;;;;;;5094984;28;20031;-79
2024/01/24 10:25:50;;;;;;;0.22;0.20;;;12.90;99.90;;;;;;5112489;28;20024;-79
2024/01/24 10:28:16;;;;;;;0.20;0.20;;;13.00;99.90;;;;;;5095081;28;20448;-79
2024/01/24 10:30:51;;;;;;;0.10;0.10;;;13.10;99.90;;;;;;5096826;28;20081;-79
2024/01/24 10:33:17;;;;;;;0.10;0.10;;;13.20;99.90;;;;;;5098928;28;20020;-78
2024/01/24 10:35:43;;;;;;;0.73;0.10;;;13.30;99.90;;;;;;5098177;28;20038;-78
2024/01/24 10:38:12;;;;;;;0.85;0.10;;;13.30;99.90;;;;;;5098534;28;20030;-78
2024/01/24 10:40:40;;;;;;;0.20;0.10;;;13.30;99.90;;;;;;5098679;28;20163;-78
2024/01/24 10:43:09;;;;;;;0.65;0.20;;;13.40;99.90;;;;;;5116569;28;20065;-77
2024/01/24 10:45:36;;;;;;;0.88;0.20;;;13.40;99.90;;;;;;5116486;28;20072;-77
2024/01/24 10:48:03;;;;;;;0.10;0.10;;;13.40;99.90;;;;;;5097648;28;20015;-78
2024/01/24 10:50:30;;;;;;;0.20;0.20;;;13.40;99.90;;;;;;5098412;28;20036;-78
2024/01/24 10:52:57;;;;;;;1.25;0.13;;;13.40;99.90;;;;;;5097700;28;20499;-78
2024/01/24 10:55:24;;;;;;;0.38;0.20;;;13.40;99.90;;;;;;5098223;28;20037;-78
2024/01/24 10:57:51;;;;;;;1.95;0.25;;;13.40;99.90;;;;;;5115277;28;20038;-78
2024/01/24 11:00:19;;;;;;;0.10;0.10;;;13.40;99.90;;;;;;5098178;28;20028;-78
2024/01/24 11:02:44;;;;;;;0.75;0.20;;;13.40;99.90;;;;;;5097646;28;20487;-79
2024/01/24 11:05:22;;;;;;;0.38;0.30;;;13.30;99.90;;;;;;5097968;28;20027;-78
2024/01/24 11:08:01;;;;;;;1.75;0.30;;;13.40;99.90;;;;;;5097296;28;20062;-79
2024/01/24 11:10:37;;;;;;;1.52;0.20;;;13.40;99.90;;;;;;5097892;28;20024;-78
2024/01/24 11:13:05;;;;;;;1.67;0.40;;;13.50;99.90;;;;;;5096926;28;20072;-78
2024/01/24 11:15:35;;;;;;;2.55;0.10;;;13.60;99.90;;;;;;5091922;28;20023;-79
2024/01/24 11:18:20;;;;;;;2.03;0.30;;;13.60;99.90;;;;;;5113433;28;20020;-77
2024/01/24 11:20:47;;;;;;;2.60;0.45;;;13.70;99.90;;;;;;5096169;28;20027;-78
2024/01/24 11:23:35;;;;;;;0.60;0.30;;;13.70;99.90;;;;;;5096361;28;20369;-77
2024/01/24 11:26:01;;;;;;;1.15;0.20;;;13.90;99.90;;;;;;5096591;28;20653;-78
2024/01/24 11:28:27;;;;;;;0.30;0.17;;;13.90;99.90;;;;;;5096790;28;20023;-79
2024/01/24 11:30:52;;;;;;;0.15;0.15;;;14.00;99.90;;;;;;5096645;28;20127;-79
2024/01/24 11:33:18;;;;;;;0.98;0.32;;;13.90;99.90;;;;;;5097117;28;20023;-79
2024/01/24 11:35:46;;;;;;;0.30;0.10;;;13.90;99.90;;;;;;5096864;28;20521;-78
2024/01/24 11:38:27;;;;;;;1.55;0.43;;;13.90;99.90;;;;;;5096925;28;20027;-77
2024/01/24 11:41:11;;;;;;;1.80;0.30;;;13.90;99.90;;;;;;5113731;28;20024;-79
2024/01/24 11:43:41;;;;;;;1.10;0.25;;;13.90;99.90;;;;;;5112018;28;20039;-78
2024/01/24 11:46:08;;;;;;;0.68;0.30;;;13.80;99.90;;;;;;5083434;28;20024;-78
2024/01/24 11:48:36;;;;;;;1.60;0.20;;;13.80;99.90;;;;;;5085972;28;20035;-79
2024/01/24 11:51:07;;;;;;;0.60;0.20;;;13.90;99.90;;;;;;5102672;28;20213;-78
2024/01/24 11:53:33;;;;;;;1.30;0.20;;;13.90;99.90;;;;;;5102275;28;20106;-79
2024/01/24 11:56:00;;;;;;;0.45;0.20;;;13.90;99.90;;;;;;5096192;28;20127;-78
2024/01/24 11:58:26;;;;;;;0.17;0.10;;;13.90;99.90;;;;;;5114869;28;20483;-78
2024/01/24 12:01:10;;;;;;;0.60;0.20;;;13.90;99.90;;;;;;5107280;28;20096;-78
2024/01/24 12:03:36;;;;;;;0.50;0.50;;;13.90;99.90;;;;;;5101294;28;20535;-77
2024/01/24 12:06:04;;;;;;;0.25;0.20;;;13.90;99.90;;;;;;5112729;28;20550;-78
2024/01/24 12:08:30;;;;;;;0.75;0.20;;;13.90;99.90;;;;;;5114597;28;20057;-78
2024/01/24 12:10:56;;;;;;;1.20;0.20;;;13.90;99.90;;;;;;5102482;28;20459;-78
2024/01/24 12:13:23;;;;;;;2.30;0.30;;;13.90;99.90;;;;;;5105973;28;20075;-79
2024/01/24 12:15:51;;;;;;;1.63;0.40;;;13.90;99.90;;;;;;5088112;28;20035;-79
2024/01/24 12:18:17;;;;;;;1.85;0.32;;;14.00;99.90;;;;;;5097067;28;20153;-80
2024/01/24 12:20:52;;;;;;;1.38;0.28;;;14.00;99.90;;;;;;5112742;28;20070;-86
2024/01/24 12:23:18;;;;;;;2.65;0.32;;;14.00;99.90;;;;;;5103572;28;20460;-78
2024/01/24 12:25:44;;;;;;;0.30;0.20;;;14.10;99.90;;;;;;5095443;28;20464;-79
2024/01/24 12:28:10;;;;;;;1.55;0.30;;;14.20;99.90;;;;;;5095728;28;20020;-78
2024/01/24 12:30:36;;;;;;;1.25;0.30;;;14.10;99.90;;;;;;5112982;28;20452;-78
2024/01/24 12:33:03;;;;;;;1.95;0.63;;;14.10;99.90;;;;;;5105023;28;20112;-78
2024/01/24 12:35:29;;;;;;;0.73;0.30;;;14.10;99.90;;;;;;5106626;28;20020;-79
2024/01/24 12:38:02;;;;;;;1.23;0.40;;;14.20;99.90;;;;;;5097642;28;20027;-79
2024/01/24 12:40:28;;;;;;;1.38;0.45;;;14.20;99.90;;;;;;5112681;28;20110;-77
2024/01/24 12:42:55;;;;;;;2.20;0.45;;;14.20;99.90;;;;;;5106136;28;20044;-80
2024/01/24 12:45:24;;;;;;;6.25;0.52;;;14.20;99.90;;;;;;5093933;28;20093;-78